createdAt,value
2018-05-27T00:00:21.585Z,19.80
2018-05-27T00:02:49.147Z,19.80
2018-05-27T00:05:17.502Z,19.70
2018-05-27T00:07:45.062Z,19.70
2018-05-27T00:10:12.558Z,19.60
2018-05-27T00:12:40.115Z,19.50
2018-05-27T00:15:07.646Z,19.50
2018-05-27T00:17:37.065Z,19.50
2018-05-27T00:20:04.583Z,19.50
2018-05-27T00:22:32.145Z,19.50
2018-05-27T00:24:59.652Z,19.60
2018-05-27T00:27:27.222Z,19.60
2018-05-27T00:29:54.747Z,19.60
2018-05-27T00:32:22.307Z,19.50
2018-05-27T00:34:49.821Z,19.40
2018-05-27T00:37:17.356Z,19.40
2018-05-27T00:39:45.682Z,19.30
2018-05-27T00:42:13.190Z,19.20
2018-05-27T00:44:41.398Z,19.20
2018-05-27T00:47:08.906Z,19.20
2018-05-27T00:49:36.464Z,19.20
2018-05-27T00:52:03.991Z,19.20
2018-05-27T00:54:31.537Z,19.20
2018-05-27T00:56:59.040Z,19.10
2018-05-27T00:59:26.603Z,19.10
2018-05-27T01:01:54.173Z,19.00
2018-05-27T01:04:23.194Z,19.00
2018-05-27T01:06:50.694Z,18.90
2018-05-27T01:09:18.250Z,19.00
2018-05-27T01:11:45.776Z,18.90
2018-05-27T01:14:13.353Z,18.80
2018-05-27T01:16:40.939Z,18.80
2018-05-27T01:19:08.482Z,18.90
2018-05-27T01:21:36.015Z,18.80
2018-05-27T01:24:03.562Z,18.80
2018-05-27T01:26:32.727Z,18.80
2018-05-27T01:29:00.269Z,18.80
2018-05-27T01:31:27.848Z,18.70
2018-05-27T01:33:55.406Z,18.70
2018-05-27T01:36:22.971Z,18.70
2018-05-27T01:38:50.502Z,18.70
2018-05-27T01:41:18.039Z,18.60
2018-05-27T01:43:45.553Z,18.60
2018-05-27T01:46:13.105Z,18.50
2018-05-27T01:48:40.627Z,18.50
2018-05-27T01:51:08.195Z,18.50
2018-05-27T01:53:36.484Z,18.50
2018-05-27T01:56:04.111Z,18.40
2018-05-27T01:58:32.343Z,18.50
2018-05-27T02:01:00.629Z,18.40
2018-05-27T02:03:28.189Z,18.40
2018-05-27T02:05:56.461Z,18.40
2018-05-27T02:08:24.770Z,18.40
2018-05-27T02:10:52.339Z,18.40
2018-05-27T02:13:19.907Z,18.40
2018-05-27T02:15:47.412Z,18.30
2018-05-27T02:18:15.000Z,18.30
2018-05-27T02:20:42.524Z,18.30
2018-05-27T02:23:10.081Z,18.20
2018-05-27T02:25:37.581Z,18.20
2018-05-27T02:28:05.145Z,18.20
2018-05-27T02:30:32.646Z,18.20
2018-05-27T02:33:00.152Z,18.20
2018-05-27T02:35:27.716Z,18.10
2018-05-27T02:37:55.236Z,18.10
2018-05-27T02:40:22.787Z,18.10
2018-05-27T02:42:50.295Z,18.10
2018-05-27T02:45:17.822Z,18.10
2018-05-27T02:47:46.086Z,18.10
2018-05-27T02:50:13.629Z,18.10
2018-05-27T02:52:41.120Z,18.10
2018-05-27T02:55:08.660Z,18.00
2018-05-27T02:57:36.160Z,18.00
2018-05-27T03:00:03.729Z,18.00
2018-05-27T03:02:33.150Z,17.90
2018-05-27T03:05:00.701Z,17.90
2018-05-27T03:07:28.203Z,17.90
2018-05-27T03:09:55.742Z,17.80
2018-05-27T03:12:23.240Z,17.90
2018-05-27T03:14:50.790Z,17.80
2018-05-27T03:17:19.060Z,17.70
2018-05-27T03:19:46.567Z,17.80
2018-05-27T03:22:14.103Z,17.80
2018-05-27T03:24:41.605Z,17.90
2018-05-27T03:27:09.145Z,17.90
2018-05-27T03:29:37.373Z,18.00
2018-05-27T03:32:04.910Z,18.10
2018-05-27T03:34:32.399Z,18.20
2018-05-27T03:37:00.699Z,18.40
2018-05-27T03:39:28.378Z,18.40
2018-05-27T03:44:29.783Z,18.70
2018-05-27T03:46:57.333Z,18.80
2018-05-27T03:49:24.841Z,18.90
2018-05-27T03:51:52.619Z,19.00
2018-05-27T03:54:20.227Z,19.10
2018-05-27T03:56:47.731Z,19.30
2018-05-27T03:59:15.264Z,19.40
2018-05-27T04:01:43.535Z,19.60
2018-05-27T04:04:23.671Z,19.60
2018-05-27T04:07:03.040Z,19.60
2018-05-27T04:09:31.403Z,19.60
2018-05-27T04:11:58.907Z,19.60
2018-05-27T04:14:26.443Z,19.60
2018-05-27T04:16:54.031Z,19.50
2018-05-27T04:19:21.574Z,19.60
2018-05-27T04:21:49.078Z,19.70
2018-05-27T04:24:16.631Z,19.80
2018-05-27T04:26:44.122Z,20.00
2018-05-27T04:29:12.422Z,20.40
2018-05-27T04:31:39.926Z,20.40
2018-05-27T04:34:07.486Z,20.50
2018-05-27T04:36:35.057Z,20.70
2018-05-27T04:39:02.547Z,20.80
2018-05-27T04:41:30.094Z,20.80
2018-05-27T04:43:57.611Z,20.60
2018-05-27T04:46:25.122Z,20.50
2018-05-27T04:48:52.683Z,20.40
2018-05-27T04:51:20.189Z,20.30
2018-05-27T04:53:48.452Z,20.30
2018-05-27T04:56:16.335Z,20.20
2018-05-27T04:58:43.917Z,20.20
2018-05-27T05:01:11.427Z,20.20
2018-05-27T05:03:39.099Z,20.20
2018-05-27T05:06:06.604Z,20.20
2018-05-27T05:08:34.920Z,20.20
2018-05-27T05:11:02.437Z,20.20
2018-05-27T05:13:30.757Z,20.20
2018-05-27T05:15:59.082Z,20.20
2018-05-27T05:18:27.532Z,20.30
2018-05-27T05:20:55.065Z,20.40
2018-05-27T05:23:22.724Z,20.40
2018-05-27T05:25:50.247Z,20.40
2018-05-27T05:28:17.787Z,20.40
2018-05-27T05:30:45.299Z,20.40
2018-05-27T05:33:12.842Z,20.40
2018-05-27T05:35:41.114Z,20.40
2018-05-27T05:38:09.421Z,20.30
2018-05-27T05:40:36.923Z,20.30
2018-05-27T05:43:04.479Z,20.40
2018-05-27T05:45:31.982Z,20.40
2018-05-27T05:47:59.553Z,20.40
2018-05-27T05:50:27.069Z,20.40
2018-05-27T05:52:54.647Z,20.40
2018-05-27T05:55:22.151Z,20.30
2018-05-27T05:57:49.730Z,20.30
2018-05-27T06:00:17.281Z,20.40
2018-05-27T06:02:44.783Z,20.40
2018-05-27T06:05:13.108Z,20.40
2018-05-27T06:07:40.663Z,20.40
2018-05-27T06:10:08.163Z,20.50
2018-05-27T06:12:35.679Z,20.50
2018-05-27T06:15:03.418Z,20.50
2018-05-27T06:17:30.932Z,20.60
2018-05-27T06:19:58.468Z,20.60
2018-05-27T06:22:25.978Z,20.60
2018-05-27T06:24:53.521Z,20.60
2018-05-27T06:27:21.027Z,20.70
2018-05-27T06:29:49.394Z,20.80
2018-05-27T06:32:16.899Z,20.80
2018-05-27T06:34:44.475Z,20.90
2018-05-27T06:37:11.982Z,20.90
2018-05-27T06:39:39.522Z,20.90
2018-05-27T06:42:07.039Z,20.90
2018-05-27T06:44:34.574Z,20.90
2018-05-27T06:47:02.094Z,20.90
2018-05-27T06:49:30.427Z,20.80
2018-05-27T06:51:57.947Z,20.80
2018-05-27T06:54:25.491Z,20.80
2018-05-27T06:56:53.757Z,20.80
2018-05-27T06:59:22.080Z,20.90
2018-05-27T07:01:49.598Z,20.90
2018-05-27T07:04:17.151Z,20.90
2018-05-27T07:06:45.422Z,21.00
2018-05-27T07:09:13.694Z,21.00
2018-05-27T07:11:42.023Z,21.00
2018-05-27T07:14:09.514Z,21.00
2018-05-27T07:16:37.061Z,21.00
2018-05-27T07:19:04.561Z,21.00
2018-05-27T07:21:32.876Z,21.00
2018-05-27T07:24:00.389Z,20.90
2018-05-27T07:26:27.949Z,20.90
2018-05-27T07:28:56.226Z,21.00
2018-05-27T07:31:24.568Z,21.00
2018-05-27T07:33:52.091Z,21.00
2018-05-27T07:36:19.644Z,21.00
2018-05-27T07:38:47.150Z,21.00
2018-05-27T07:41:14.710Z,21.00
2018-05-27T07:43:42.242Z,21.00
2018-05-27T07:46:09.794Z,21.00
2018-05-27T07:48:37.418Z,21.00
2018-05-27T07:51:04.972Z,21.00
2018-05-27T07:53:34.091Z,21.10
2018-05-27T07:56:01.605Z,21.10
2018-05-27T07:58:29.168Z,21.10
2018-05-27T08:00:56.658Z,21.10
2018-05-27T08:03:24.962Z,21.10
2018-05-27T08:05:52.485Z,21.10
2018-05-27T08:08:20.795Z,21.10
2018-05-27T08:10:48.315Z,21.10
2018-05-27T08:13:16.639Z,21.00
2018-05-27T08:15:44.146Z,21.00
2018-05-27T08:18:11.701Z,20.90
2018-05-27T08:20:39.256Z,20.90
2018-05-27T08:23:07.669Z,20.90
2018-05-27T08:25:35.977Z,20.90
2018-05-27T08:28:03.565Z,20.90
2018-05-27T08:30:31.097Z,20.80
2018-05-27T08:32:58.644Z,20.70
2018-05-27T08:35:26.144Z,20.60
2018-05-27T08:37:53.753Z,20.60
2018-05-27T08:40:21.270Z,20.50
2018-05-27T08:42:48.770Z,20.50
2018-05-27T08:45:16.423Z,20.50
2018-05-27T08:47:44.738Z,20.60
2018-05-27T08:50:12.234Z,20.60
2018-05-27T08:52:39.804Z,20.60
2018-05-27T08:55:08.083Z,20.60
2018-05-27T08:57:36.496Z,20.60
2018-05-27T09:00:04.139Z,20.50
2018-05-27T09:02:31.652Z,20.60
2018-05-27T09:04:59.200Z,20.70
2018-05-27T09:07:26.734Z,20.70
2018-05-27T09:09:54.299Z,20.60
2018-05-27T09:12:21.811Z,20.60
2018-05-27T09:14:50.138Z,20.40
2018-05-27T09:17:17.651Z,20.40
2018-05-27T09:19:47.481Z,20.20
2018-05-27T09:22:15.003Z,20.20
2018-05-27T09:24:42.567Z,20.20
2018-05-27T09:27:10.075Z,20.20
2018-05-27T09:29:37.616Z,20.20
2018-05-27T09:32:06.751Z,20.40
2018-05-27T09:34:34.303Z,20.40
2018-05-27T09:37:01.812Z,20.50
2018-05-27T09:39:30.143Z,20.70
2018-05-27T09:41:57.656Z,20.70
2018-05-27T09:44:25.170Z,20.80
2018-05-27T09:46:52.740Z,20.90
2018-05-27T09:49:20.247Z,21.00
2018-05-27T09:51:47.803Z,21.10
2018-05-27T09:54:16.062Z,21.30
2018-05-27T09:56:44.381Z,21.30
2018-05-27T09:59:11.914Z,21.30
2018-05-27T10:01:39.474Z,21.40
2018-05-27T10:04:07.783Z,21.70
2018-05-27T10:06:35.344Z,21.70
2018-05-27T10:09:02.876Z,21.90
2018-05-27T10:11:30.514Z,22.10
2018-05-27T10:13:58.799Z,22.40
2018-05-27T10:16:27.132Z,22.60
2018-05-27T10:18:54.724Z,22.60
2018-05-27T10:21:22.251Z,22.80
2018-05-27T10:23:49.806Z,23.10
2018-05-27T10:26:17.318Z,23.40
2018-05-27T10:28:44.866Z,23.70
2018-05-27T10:31:12.383Z,24.00
2018-05-27T10:33:40.702Z,24.60
2018-05-27T10:36:08.967Z,24.60
2018-05-27T10:38:36.510Z,24.60
2018-05-27T10:41:04.199Z,24.80
2018-05-27T10:43:32.532Z,25.00
2018-05-27T10:46:00.047Z,25.00
2018-05-27T10:48:27.604Z,25.00
2018-05-27T10:50:55.112Z,25.00
2018-05-27T10:53:22.669Z,25.00
2018-05-27T10:55:50.179Z,24.90
2018-05-27T10:58:18.449Z,24.60
2018-05-27T11:00:46.787Z,24.60
2018-05-27T11:03:14.302Z,24.60
2018-05-27T11:05:42.651Z,24.70
2018-05-27T11:08:10.170Z,24.70
2018-05-27T11:10:37.765Z,24.70
2018-05-27T11:13:05.262Z,24.70
2018-05-27T11:15:32.823Z,24.70
2018-05-27T11:18:00.373Z,24.60
2018-05-27T11:20:27.939Z,24.70
2018-05-27T11:22:56.359Z,24.70
2018-05-27T11:25:23.905Z,24.70
2018-05-27T11:27:51.435Z,24.70
2018-05-27T11:30:19.043Z,24.70
2018-05-27T11:32:46.574Z,24.60
2018-05-27T11:35:14.120Z,24.60
2018-05-27T11:37:41.622Z,24.70
2018-05-27T11:40:09.130Z,24.80
2018-05-27T11:42:36.684Z,24.80
2018-05-27T11:45:04.228Z,24.90
2018-05-27T11:47:31.787Z,24.90
2018-05-27T11:50:00.073Z,25.00
2018-05-27T11:52:28.417Z,25.00
2018-05-27T11:54:55.928Z,25.00
2018-05-27T11:57:23.478Z,25.00
2018-05-27T11:59:51.754Z,24.90
2018-05-27T12:02:20.118Z,24.90
2018-05-27T12:04:47.925Z,24.90
2018-05-27T12:07:15.540Z,24.90
2018-05-27T12:09:44.033Z,24.90
2018-05-27T12:12:11.380Z,24.90
2018-05-27T12:14:39.645Z,24.90
2018-05-27T12:17:07.189Z,24.90
2018-05-27T12:19:34.702Z,25.00
2018-05-27T12:22:02.217Z,25.00
2018-05-27T12:24:29.778Z,25.00
2018-05-27T12:26:57.287Z,25.00
2018-05-27T12:29:24.886Z,25.00
2018-05-27T12:31:52.428Z,25.10
2018-05-27T12:34:19.975Z,25.10
2018-05-27T12:36:47.481Z,25.10
2018-05-27T12:39:15.809Z,25.20
2018-05-27T12:41:43.315Z,25.20
2018-05-27T12:44:10.879Z,25.50
2018-05-27T12:46:39.195Z,27.20
2018-05-27T12:49:06.738Z,27.20
2018-05-27T12:51:34.259Z,28.10
2018-05-27T12:54:01.830Z,28.80
2018-05-27T12:56:29.331Z,29.40
2018-05-27T12:58:56.859Z,30.00
2018-05-27T13:01:25.169Z,31.20
2018-05-27T13:03:52.720Z,31.10
2018-05-27T13:06:20.228Z,31.80
2018-05-27T13:08:47.767Z,32.30
2018-05-27T13:11:15.714Z,32.80
2018-05-27T13:13:43.247Z,33.30
2018-05-27T13:16:11.528Z,34.20
2018-05-27T13:18:39.874Z,34.60
2018-05-27T13:21:07.381Z,34.70
2018-05-27T13:23:34.883Z,35.10
2018-05-27T13:26:02.429Z,35.50
2018-05-27T13:28:29.971Z,35.90
2018-05-27T13:30:57.480Z,36.30
2018-05-27T13:33:25.807Z,37.20
2018-05-27T13:35:53.362Z,37.10
2018-05-27T13:38:20.892Z,36.30
2018-05-27T13:40:48.453Z,36.80
2018-05-27T13:43:15.968Z,37.00
2018-05-27T13:45:43.534Z,37.20
2018-05-27T13:48:11.041Z,36.50
2018-05-27T13:50:38.595Z,35.80
2018-05-27T13:53:06.096Z,35.40
2018-05-27T13:55:33.634Z,35.10
2018-05-27T13:58:01.150Z,34.90
2018-05-27T14:00:29.498Z,34.60
2018-05-27T14:02:57.029Z,34.50
2018-05-27T14:05:24.575Z,33.90
2018-05-27T14:07:52.132Z,33.30
2018-05-27T14:10:19.703Z,32.80
2018-05-27T14:12:47.260Z,32.40
2018-05-27T14:15:14.768Z,31.90
2018-05-27T14:17:42.322Z,31.40
2018-05-27T14:20:09.840Z,31.00
2018-05-27T14:22:37.370Z,30.60
2018-05-27T14:25:05.657Z,29.90
2018-05-27T14:27:33.218Z,29.90
2018-05-27T14:30:00.740Z,29.60
2018-05-27T14:32:28.299Z,29.40
2018-05-27T14:34:55.799Z,29.20
2018-05-27T14:37:23.368Z,29.00
2018-05-27T14:39:50.869Z,28.80
2018-05-27T14:42:18.356Z,28.60
2018-05-27T14:44:45.941Z,28.50
2018-05-27T14:47:14.175Z,28.30
2018-05-27T14:49:42.487Z,28.10
2018-05-27T14:52:10.035Z,28.10
2018-05-27T14:54:37.549Z,28.10
2018-05-27T14:57:05.710Z,28.00
2018-05-27T14:59:33.220Z,27.90
2018-05-27T15:02:01.581Z,27.70
2018-05-27T15:04:29.848Z,27.60
2018-05-27T15:06:57.398Z,27.50
2018-05-27T15:09:24.963Z,27.50
2018-05-27T15:11:52.474Z,27.40
2018-05-27T15:14:20.112Z,27.30
2018-05-27T15:16:50.245Z,27.20
2018-05-27T15:19:17.841Z,27.20
2018-05-27T15:21:45.339Z,27.20
2018-05-27T15:24:13.606Z,27.00
2018-05-27T15:26:41.147Z,27.00
2018-05-27T15:29:08.661Z,27.00
2018-05-27T15:31:36.896Z,26.90
2018-05-27T15:34:04.386Z,27.00
2018-05-27T15:36:32.080Z,26.90
2018-05-27T15:38:59.654Z,26.90
2018-05-27T15:41:27.204Z,26.90
2018-05-27T15:43:55.762Z,26.90
2018-05-27T15:46:23.924Z,26.80
2018-05-27T15:48:51.419Z,26.80
2018-05-27T15:51:18.993Z,26.80
2018-05-27T15:53:46.534Z,26.80
2018-05-27T15:56:14.066Z,26.80
2018-05-27T15:58:41.582Z,26.80
2018-05-27T16:01:09.127Z,26.80
2018-05-27T16:03:36.643Z,26.80
2018-05-27T16:06:04.244Z,26.80
2018-05-27T16:08:31.740Z,26.70
2018-05-27T16:11:00.026Z,26.70
2018-05-27T16:13:27.603Z,26.70
2018-05-27T16:15:55.119Z,26.70
2018-05-27T16:18:23.239Z,26.60
2018-05-27T16:20:50.797Z,26.60
2018-05-27T16:23:18.518Z,26.60
2018-05-27T16:25:46.984Z,26.60
2018-05-27T16:28:14.526Z,26.60
2018-05-27T16:30:42.035Z,26.60
2018-05-27T16:33:09.590Z,26.60
2018-05-27T16:35:37.921Z,26.70
2018-05-27T16:38:05.514Z,26.70
2018-05-27T16:40:33.031Z,26.80
2018-05-27T16:43:00.563Z,26.90
2018-05-27T16:45:28.055Z,27.00
2018-05-27T16:47:55.957Z,27.10
2018-05-27T16:50:24.289Z,27.20
2018-05-27T16:52:51.824Z,27.30
2018-05-27T16:55:19.507Z,27.40
2018-05-27T16:57:48.307Z,27.50
2018-05-27T17:00:16.312Z,27.50
2018-05-27T17:02:43.767Z,27.50
2018-05-27T17:05:11.307Z,27.50
2018-05-27T17:07:38.859Z,27.40
2018-05-27T17:10:06.434Z,27.40
2018-05-27T17:12:33.935Z,27.40
2018-05-27T17:15:02.252Z,27.30
2018-05-27T17:17:29.752Z,27.30
2018-05-27T17:19:58.059Z,27.20
2018-05-27T17:22:25.567Z,27.20
2018-05-27T17:24:53.145Z,27.20
2018-05-27T17:27:21.428Z,27.30
2018-05-27T17:29:49.740Z,27.40
2018-05-27T17:32:17.229Z,27.30
2018-05-27T17:34:44.820Z,27.40
2018-05-27T17:37:13.098Z,27.30
2018-05-27T17:39:41.409Z,27.30
2018-05-27T17:42:08.953Z,27.20
2018-05-27T17:44:37.210Z,27.00
2018-05-27T17:47:04.852Z,27.00
2018-05-27T17:49:32.360Z,26.90
2018-05-27T17:51:59.927Z,26.70
2018-05-27T17:54:27.453Z,26.60
2018-05-27T17:56:55.793Z,26.40
2018-05-27T17:59:23.582Z,26.30
2018-05-27T18:01:51.131Z,26.20
2018-05-27T18:04:18.639Z,26.20
2018-05-27T18:06:46.215Z,26.00
2018-05-27T18:09:13.758Z,25.90
2018-05-27T18:11:41.316Z,25.90
2018-05-27T18:14:08.828Z,25.90
2018-05-27T18:16:36.376Z,25.70
2018-05-27T18:19:03.885Z,25.70
2018-05-27T18:21:31.434Z,25.60
2018-05-27T18:23:59.721Z,25.60
2018-05-27T18:26:28.022Z,25.50
2018-05-27T18:28:55.612Z,25.50
2018-05-27T18:31:23.178Z,25.40
2018-05-27T18:33:50.727Z,25.40
2018-05-27T18:36:18.231Z,25.30
2018-05-27T18:38:46.571Z,25.20
2018-05-27T18:41:14.053Z,25.20
2018-05-27T18:43:41.611Z,25.10
2018-05-27T18:46:09.893Z,25.00
2018-05-27T18:48:38.198Z,24.90
2018-05-27T18:51:05.703Z,24.90
2018-05-27T18:53:34.144Z,24.90
2018-05-27T18:56:01.653Z,24.80
2018-05-27T18:58:29.231Z,24.80
2018-05-27T19:00:56.826Z,24.70
2018-05-27T19:03:24.379Z,24.70
2018-05-27T19:05:51.908Z,24.60
2018-05-27T19:08:19.501Z,24.60
2018-05-27T19:10:47.011Z,24.60
2018-05-27T19:13:14.570Z,24.60
2018-05-27T19:15:42.116Z,24.50
2018-05-27T19:18:09.685Z,24.60
2018-05-27T19:20:37.202Z,24.50
2018-05-27T19:23:05.927Z,24.50
2018-05-27T19:25:33.569Z,24.40
2018-05-27T19:28:01.063Z,24.40
2018-05-27T19:30:28.623Z,24.40
2018-05-27T19:32:56.901Z,24.30
2018-05-27T19:35:26.091Z,24.30
2018-05-27T19:37:55.230Z,24.30
2018-05-27T19:40:22.784Z,24.20
2018-05-27T19:42:50.315Z,24.20
2018-05-27T19:45:17.868Z,24.20
2018-05-27T19:47:45.396Z,24.20
2018-05-27T19:50:13.983Z,24.20
2018-05-27T19:52:42.424Z,24.10
2018-05-27T19:55:10.008Z,24.10
2018-05-27T19:57:37.519Z,24.00
2018-05-27T20:00:05.070Z,23.90
2018-05-27T20:02:33.416Z,23.80
2018-05-27T20:05:01.099Z,23.80
2018-05-27T20:07:28.624Z,23.70
2018-05-27T20:09:56.282Z,23.60
2018-05-27T20:12:24.520Z,23.50
2018-05-27T20:14:52.091Z,23.50
2018-05-27T20:17:19.603Z,23.50
2018-05-27T20:19:47.135Z,23.40
2018-05-27T20:22:14.701Z,23.40
2018-05-27T20:24:42.204Z,23.30
2018-05-27T20:27:09.765Z,23.30
2018-05-27T20:29:38.088Z,23.20
2018-05-27T20:32:05.640Z,23.20
2018-05-27T20:34:33.176Z,23.20
2018-05-27T20:37:01.571Z,23.20
2018-05-27T20:39:29.097Z,23.20
2018-05-27T20:41:57.414Z,23.10
2018-05-27T20:44:24.928Z,23.10
2018-05-27T20:46:52.535Z,23.10
2018-05-27T20:49:20.049Z,23.10
2018-05-27T20:51:48.385Z,23.00
2018-05-27T20:54:15.909Z,23.00
2018-05-27T20:56:43.551Z,22.90
2018-05-27T20:59:11.035Z,22.90
2018-05-27T21:01:38.664Z,22.90
2018-05-27T21:04:06.180Z,22.90
2018-05-27T21:06:33.747Z,22.90
2018-05-27T21:09:01.363Z,22.80
2018-05-27T21:11:29.642Z,22.80
2018-05-27T21:13:57.201Z,22.80
2018-05-27T21:16:25.463Z,22.70
2018-05-27T21:18:53.793Z,22.70
2018-05-27T21:21:21.318Z,22.70
2018-05-27T21:23:48.882Z,22.60
2018-05-27T21:26:16.387Z,22.60
2018-05-27T21:28:43.955Z,22.60
2018-05-27T21:31:11.473Z,22.50
2018-05-27T21:33:39.094Z,22.50
2018-05-27T21:36:07.392Z,22.40
2018-05-27T21:38:34.982Z,22.40
2018-05-27T21:41:02.509Z,22.40
2018-05-27T21:43:30.075Z,22.40
2018-05-27T21:45:57.609Z,22.30
2018-05-27T21:48:25.947Z,22.30
2018-05-27T21:50:53.457Z,22.20
2018-05-27T21:53:21.829Z,22.20
2018-05-27T21:55:50.560Z,22.10
2018-05-27T21:58:18.099Z,22.10
2018-05-27T22:00:45.658Z,22.10
2018-05-27T22:03:13.196Z,22.10
2018-05-27T22:05:40.782Z,22.00
2018-05-27T22:08:08.288Z,22.00
2018-05-27T22:10:35.847Z,21.90
2018-05-27T22:13:03.365Z,21.90
2018-05-27T22:15:30.920Z,21.90
2018-05-27T22:17:58.459Z,21.90
2018-05-27T22:20:26.746Z,21.90
2018-05-27T22:22:54.534Z,21.80
2018-05-27T22:25:22.047Z,21.80
2018-05-27T22:27:50.436Z,21.80
2018-05-27T22:30:18.234Z,21.80
2018-05-27T22:32:47.750Z,21.80
2018-05-27T22:35:16.108Z,21.70
2018-05-27T22:37:43.635Z,21.70
2018-05-27T22:40:11.962Z,21.60
2018-05-27T22:42:39.473Z,21.60
2018-05-27T22:45:07.010Z,21.60
2018-05-27T22:47:34.540Z,21.60
2018-05-27T22:50:02.075Z,21.50
2018-05-27T22:52:29.594Z,21.50
2018-05-27T22:54:57.138Z,21.40
2018-05-27T22:57:25.463Z,21.30
2018-05-27T22:59:53.058Z,21.30
2018-05-27T23:02:20.655Z,21.30
2018-05-27T23:04:49.651Z,21.30
2018-05-27T23:07:17.166Z,21.20
2018-05-27T23:09:45.510Z,21.20
2018-05-27T23:12:13.047Z,21.20
2018-05-27T23:14:41.347Z,21.10
2018-05-27T23:17:08.865Z,21.10
2018-05-27T23:19:36.419Z,21.10
2018-05-27T23:22:04.890Z,21.10
2018-05-27T23:24:32.431Z,21.00
2018-05-27T23:26:59.934Z,21.00
2018-05-27T23:29:27.437Z,20.90
2018-05-27T23:31:54.975Z,20.90
2018-05-27T23:34:22.474Z,20.90
2018-05-27T23:36:50.005Z,20.80
2018-05-27T23:39:17.524Z,20.80
2018-05-27T23:41:45.080Z,20.80
2018-05-27T23:44:12.574Z,20.70
2018-05-27T23:46:40.916Z,20.70
2018-05-27T23:49:08.429Z,20.70
2018-05-27T23:51:35.998Z,20.70
2018-05-27T23:54:03.509Z,20.70
2018-05-27T23:56:31.065Z,20.60
2018-05-27T23:58:59.336Z,20.60
